sensor_id;sensor_type;location;lat;lon;timestamp;pressure;altitude;pressure_sealevel;temperature;humidity
6514;BME280;3290;47.716;9.070;2022-09-21T00:00:51;97627.75;;;12.16;89.33
6514;BME280;3290;47.716;9.070;2022-09-21T00:03:17;97622.16;;;11.99;90.17
6514;BME280;3290;47.716;9.070;2022-09-21T00:05:42;97625.59;;;12.00;89.63
6514;BME280;3290;47.716;9.070;2022-09-21T00:08:11;97628.81;;;12.02;89.32
6514;BME280;3290;47.716;9.070;2022-09-21T00:10:37;97626.00;;;11.97;88.90
6514;BME280;3290;47.716;9.070;2022-09-21T00:13:03;97624.63;;;11.88;89.52
6514;BME280;3290;47.716;9.070;2022-09-21T00:15:30;97625.03;;;11.92;88.48
6514;BME280;3290;47.716;9.070;2022-09-21T00:17:57;97626.81;;;11.91;88.15
6514;BME280;3290;47.716;9.070;2022-09-21T00:20:24;97626.66;;;11.80;89.91
6514;BME280;3290;47.716;9.070;2022-09-21T00:22:50;97626.88;;;11.65;90.41
6514;BME280;3290;47.716;9.070;2022-09-21T00:25:17;97626.84;;;11.40;92.64
6514;BME280;3290;47.716;9.070;2022-09-21T00:27:43;97626.25;;;11.63;92.12
6514;BME280;3290;47.716;9.070;2022-09-21T00:30:10;97619.00;;;11.65;90.53
6514;BME280;3290;47.716;9.070;2022-09-21T00:32:36;97622.25;;;11.48;91.96
6514;BME280;3290;47.716;9.070;2022-09-21T00:35:03;97625.06;;;11.47;92.49
6514;BME280;3290;47.716;9.070;2022-09-21T00:37:29;97620.41;;;11.36;94.35
6514;BME280;3290;47.716;9.070;2022-09-21T00:39:54;97620.38;;;11.10;95.01
6514;BME280;3290;47.716;9.070;2022-09-21T00:42:26;97616.94;;;10.90;96.70
6514;BME280;3290;47.716;9.070;2022-09-21T00:44:52;97614.13;;;11.18;94.69
6514;BME280;3290;47.716;9.070;2022-09-21T00:47:33;97609.28;;;11.21;94.90
6514;BME280;3290;47.716;9.070;2022-09-21T00:50:03;97606.88;;;11.13;96.11
6514;BME280;3290;47.716;9.070;2022-09-21T00:52:33;97613.09;;;11.06;96.52
6514;BME280;3290;47.716;9.070;2022-09-21T00:55:28;97603.63;;;10.98;97.74
6514;BME280;3290;47.716;9.070;2022-09-21T00:57:59;97612.94;;;11.20;95.54
6514;BME280;3290;47.716;9.070;2022-09-21T01:00:27;97607.66;;;11.07;96.27
6514;BME280;3290;47.716;9.070;2022-09-21T01:02:53;97604.44;;;11.18;95.49
6514;BME280;3290;47.716;9.070;2022-09-21T01:05:28;97606.84;;;11.00;96.93
6514;BME280;3290;47.716;9.070;2022-09-21T01:07:55;97608.47;;;11.01;96.74
6514;BME280;3290;47.716;9.070;2022-09-21T01:10:22;97609.66;;;10.92;97.53
6514;BME280;3290;47.716;9.070;2022-09-21T01:15:54;97610.50;;;10.99;97.85
6514;BME280;3290;47.716;9.070;2022-09-21T01:18:39;97607.03;;;10.86;98.23
6514;BME280;3290;47.716;9.070;2022-09-21T01:27:01;97593.19;;;10.39;100.00
6514;BME280;3290;47.716;9.070;2022-09-21T01:29:39;97588.19;;;10.44;100.00
6514;BME280;3290;47.716;9.070;2022-09-21T01:32:08;97594.16;;;10.19;100.00
6514;BME280;3290;47.716;9.070;2022-09-21T01:34:38;97591.38;;;10.33;100.00
6514;BME280;3290;47.716;9.070;2022-09-21T01:37:32;97601.91;;;10.52;99.99
6514;BME280;3290;47.716;9.070;2022-09-21T01:40:02;97597.88;;;10.56;100.00
6514;BME280;3290;47.716;9.070;2022-09-21T01:42:29;97590.47;;;10.66;99.16
6514;BME280;3290;47.716;9.070;2022-09-21T01:44:59;97590.63;;;10.58;99.80
6514;BME280;3290;47.716;9.070;2022-09-21T01:47:28;97602.72;;;10.53;100.00
6514;BME280;3290;47.716;9.070;2022-09-21T01:49:59;97597.47;;;10.53;100.00
6514;BME280;3290;47.716;9.070;2022-09-21T01:52:51;97591.41;;;10.46;100.00
6514;BME280;3290;47.716;9.070;2022-09-21T01:55:24;97595.44;;;10.42;100.00
6514;BME280;3290;47.716;9.070;2022-09-21T01:58:25;97595.41;;;10.29;100.00
6514;BME280;3290;47.716;9.070;2022-09-21T02:00:55;97588.91;;;10.19;100.00
6514;BME280;3290;47.716;9.070;2022-09-21T02:03:37;97588.16;;;10.31;100.00
6514;BME280;3290;47.716;9.070;2022-09-21T02:06:04;97592.81;;;10.42;100.00
6514;BME280;3290;47.716;9.070;2022-09-21T02:08:31;97589.63;;;10.53;99.46
6514;BME280;3290;47.716;9.070;2022-09-21T02:10:59;97586.22;;;10.59;99.43
6514;BME280;3290;47.716;9.070;2022-09-21T02:13:38;97591.63;;;10.51;99.54
6514;BME280;3290;47.716;9.070;2022-09-21T02:18:55;97585.59;;;10.50;98.83
6514;BME280;3290;47.716;9.070;2022-09-21T02:21:35;97577.31;;;10.47;99.49
6514;BME280;3290;47.716;9.070;2022-09-21T02:27:03;97579.81;;;10.80;96.37
6514;BME280;3290;47.716;9.070;2022-09-21T02:35:12;97584.97;;;10.55;97.95
6514;BME280;3290;47.716;9.070;2022-09-21T02:37:50;97584.00;;;10.56;97.38
6514;BME280;3290;47.716;9.070;2022-09-21T02:40:38;97585.63;;;10.63;97.03
6514;BME280;3290;47.716;9.070;2022-09-21T02:43:13;97580.19;;;10.65;96.17
6514;BME280;3290;47.716;9.070;2022-09-21T02:45:48;97578.19;;;10.79;95.43
6514;BME280;3290;47.716;9.070;2022-09-21T02:48:23;97583.31;;;10.41;96.57
6514;BME280;3290;47.716;9.070;2022-09-21T02:50:53;97579.19;;;10.13;99.08
6514;BME280;3290;47.716;9.070;2022-09-21T02:53:28;97574.84;;;10.26;98.98
6514;BME280;3290;47.716;9.070;2022-09-21T02:55:58;97577.19;;;10.15;99.60
6514;BME280;3290;47.716;9.070;2022-09-21T02:58:28;97575.22;;;10.17;99.45
6514;BME280;3290;47.716;9.070;2022-09-21T03:00:56;97576.72;;;9.98;99.18
6514;BME280;3290;47.716;9.070;2022-09-21T03:03:23;97576.78;;;9.78;100.00
6514;BME280;3290;47.716;9.070;2022-09-21T03:05:50;97576.59;;;9.79;100.00
6514;BME280;3290;47.716;9.070;2022-09-21T03:08:17;97584.63;;;9.71;100.00
6514;BME280;3290;47.716;9.070;2022-09-21T03:10:43;97581.91;;;9.58;100.00
6514;BME280;3290;47.716;9.070;2022-09-21T03:13:09;97576.25;;;9.55;100.00
6514;BME280;3290;47.716;9.070;2022-09-21T03:15:35;97582.88;;;9.51;100.00
6514;BME280;3290;47.716;9.070;2022-09-21T03:18:02;97580.50;;;9.56;100.00
6514;BME280;3290;47.716;9.070;2022-09-21T03:20:32;97586.00;;;9.40;100.00
6514;BME280;3290;47.716;9.070;2022-09-21T03:22:58;97581.25;;;9.50;100.00
6514;BME280;3290;47.716;9.070;2022-09-21T03:25:23;97586.91;;;9.54;100.00
6514;BME280;3290;47.716;9.070;2022-09-21T03:27:48;97591.44;;;9.72;100.00
6514;BME280;3290;47.716;9.070;2022-09-21T03:30:16;97588.56;;;9.61;100.00
6514;BME280;3290;47.716;9.070;2022-09-21T03:32:42;97583.88;;;9.50;100.00
6514;BME280;3290;47.716;9.070;2022-09-21T03:35:07;97583.91;;;9.57;100.00
6514;BME280;3290;47.716;9.070;2022-09-21T03:37:33;97598.34;;;9.25;100.00
6514;BME280;3290;47.716;9.070;2022-09-21T03:39:58;97592.53;;;9.51;100.00
6514;BME280;3290;47.716;9.070;2022-09-21T03:42:24;97590.31;;;9.20;100.00
6514;BME280;3290;47.716;9.070;2022-09-21T03:44:49;97593.63;;;9.35;100.00
6514;BME280;3290;47.716;9.070;2022-09-21T03:47:14;97595.09;;;9.17;100.00
6514;BME280;3290;47.716;9.070;2022-09-21T03:49:40;97599.13;;;9.19;100.00
6514;BME280;3290;47.716;9.070;2022-09-21T03:52:05;97594.34;;;9.02;100.00
6514;BME280;3290;47.716;9.070;2022-09-21T03:54:30;97598.25;;;9.13;100.00
6514;BME280;3290;47.716;9.070;2022-09-21T03:56:56;97593.97;;;9.05;100.00
6514;BME280;3290;47.716;9.070;2022-09-21T03:59:21;97585.28;;;9.25;100.00
6514;BME280;3290;47.716;9.070;2022-09-21T04:01:46;97588.25;;;9.16;100.00
6514;BME280;3290;47.716;9.070;2022-09-21T04:04:12;97580.84;;;8.99;100.00
6514;BME280;3290;47.716;9.070;2022-09-21T04:06:37;97590.16;;;9.08;100.00
6514;BME280;3290;47.716;9.070;2022-09-21T04:09:03;97598.59;;;9.03;100.00
6514;BME280;3290;47.716;9.070;2022-09-21T04:11:28;97590.56;;;9.05;100.00
6514;BME280;3290;47.716;9.070;2022-09-21T04:13:54;97590.06;;;8.95;100.00
6514;BME280;3290;47.716;9.070;2022-09-21T04:16:26;97595.16;;;9.03;100.00
6514;BME280;3290;47.716;9.070;2022-09-21T04:18:51;97594.94;;;8.98;100.00
6514;BME280;3290;47.716;9.070;2022-09-21T04:21:17;97591.50;;;8.97;100.00
6514;BME280;3290;47.716;9.070;2022-09-21T04:23:43;97592.16;;;9.06;100.00
6514;BME280;3290;47.716;9.070;2022-09-21T04:26:26;97602.56;;;8.99;100.00
6514;BME280;3290;47.716;9.070;2022-09-21T04:28:52;97602.81;;;9.04;100.00
6514;BME280;3290;47.716;9.070;2022-09-21T04:31:18;97597.53;;;8.98;100.00
6514;BME280;3290;47.716;9.070;2022-09-21T04:33:43;97597.34;;;8.99;100.00
6514;BME280;3290;47.716;9.070;2022-09-21T04:36:09;97593.06;;;8.71;100.00
6514;BME280;3290;47.716;9.070;2022-09-21T04:38:34;97602.13;;;8.96;100.00
6514;BME280;3290;47.716;9.070;2022-09-21T04:40:59;97601.03;;;9.05;100.00
6514;BME280;3290;47.716;9.070;2022-09-21T04:43:25;97606.72;;;9.15;100.00
6514;BME280;3290;47.716;9.070;2022-09-21T04:45:51;97607.09;;;9.12;100.00
6514;BME280;3290;47.716;9.070;2022-09-21T04:48:16;97607.31;;;8.89;100.00
6514;BME280;3290;47.716;9.070;2022-09-21T04:50:42;97612.03;;;8.79;100.00
6514;BME280;3290;47.716;9.070;2022-09-21T04:53:08;97602.25;;;8.88;100.00
6514;BME280;3290;47.716;9.070;2022-09-21T04:55:34;97605.50;;;8.69;100.00
6514;BME280;3290;47.716;9.070;2022-09-21T04:57:59;97617.06;;;8.60;100.00
6514;BME280;3290;47.716;9.070;2022-09-21T05:00:26;97613.09;;;8.85;100.00
6514;BME280;3290;47.716;9.070;2022-09-21T05:02:51;97622.22;;;8.95;100.00
6514;BME280;3290;47.716;9.070;2022-09-21T05:05:16;97613.53;;;8.88;100.00
6514;BME280;3290;47.716;9.070;2022-09-21T05:07:42;97621.56;;;8.66;100.00
6514;BME280;3290;47.716;9.070;2022-09-21T05:10:07;97625.75;;;8.67;100.00
6514;BME280;3290;47.716;9.070;2022-09-21T05:12:34;97621.75;;;8.85;100.00
6514;BME280;3290;47.716;9.070;2022-09-21T05:15:00;97621.16;;;8.69;100.00
6514;BME280;3290;47.716;9.070;2022-09-21T05:17:26;97618.31;;;8.85;100.00
6514;BME280;3290;47.716;9.070;2022-09-21T05:19:52;97621.31;;;8.82;100.00
6514;BME280;3290;47.716;9.070;2022-09-21T05:22:18;97629.00;;;8.90;100.00
6514;BME280;3290;47.716;9.070;2022-09-21T05:24:44;97628.38;;;8.67;100.00
6514;BME280;3290;47.716;9.070;2022-09-21T05:27:09;97630.69;;;8.77;100.00
6514;BME280;3290;47.716;9.070;2022-09-21T05:29:35;97634.72;;;8.58;100.00
6514;BME280;3290;47.716;9.070;2022-09-21T05:32:10;97627.34;;;8.82;100.00
6514;BME280;3290;47.716;9.070;2022-09-21T05:34:44;97637.28;;;8.73;100.00
6514;BME280;3290;47.716;9.070;2022-09-21T05:40:09;97630.69;;;8.97;100.00
6514;BME280;3290;47.716;9.070;2022-09-21T05:42:35;97630.88;;;9.17;100.00
6514;BME280;3290;47.716;9.070;2022-09-21T05:45:00;97632.22;;;9.33;100.00
6514;BME280;3290;47.716;9.070;2022-09-21T05:47:48;97632.28;;;9.40;100.00
6514;BME280;3290;47.716;9.070;2022-09-21T05:55:43;97638.84;;;10.17;97.77
6514;BME280;3290;47.716;9.070;2022-09-21T05:59:02;97637.63;;;10.13;97.56
6514;BME280;3290;47.716;9.070;2022-09-21T06:01:20;97631.88;;;10.31;96.87
6514;BME280;3290;47.716;9.070;2022-09-21T06:03:52;97630.47;;;10.41;97.02
6514;BME280;3290;47.716;9.070;2022-09-21T06:06:19;97629.22;;;10.83;95.67
6514;BME280;3290;47.716;9.070;2022-09-21T06:08:44;97625.41;;;11.05;94.19
6514;BME280;3290;47.716;9.070;2022-09-21T06:11:10;97629.44;;;11.01;94.66
6514;BME280;3290;47.716;9.070;2022-09-21T06:13:36;97628.47;;;11.34;92.37
6514;BME280;3290;47.716;9.070;2022-09-21T06:16:02;97634.75;;;11.53;91.02
6514;BME280;3290;47.716;9.070;2022-09-21T06:18:27;97626.63;;;11.93;90.46
6514;BME280;3290;47.716;9.070;2022-09-21T06:20:53;97623.94;;;12.18;87.63
6514;BME280;3290;47.716;9.070;2022-09-21T06:23:18;97625.25;;;12.46;86.40
6514;BME280;3290;47.716;9.070;2022-09-21T06:25:44;97613.63;;;13.04;84.73
6514;BME280;3290;47.716;9.070;2022-09-21T06:28:14;97612.03;;;12.96;82.79
6514;BME280;3290;47.716;9.070;2022-09-21T06:30:40;97612.81;;;13.58;80.28
6514;BME280;3290;47.716;9.070;2022-09-21T06:33:07;97619.25;;;13.62;80.46
6514;BME280;3290;47.716;9.070;2022-09-21T06:35:34;97605.72;;;13.59;80.45
6514;BME280;3290;47.716;9.070;2022-09-21T06:38:01;97608.06;;;14.08;78.78
6514;BME280;3290;47.716;9.070;2022-09-21T06:40:28;97608.53;;;14.05;78.29
6514;BME280;3290;47.716;9.070;2022-09-21T06:42:58;97613.19;;;14.03;78.00
6514;BME280;3290;47.716;9.070;2022-09-21T06:45:27;97613.72;;;14.30;76.51
6514;BME280;3290;47.716;9.070;2022-09-21T06:47:53;97612.91;;;14.29;77.34
6514;BME280;3290;47.716;9.070;2022-09-21T06:50:19;97622.81;;;14.16;76.27
6514;BME280;3290;47.716;9.070;2022-09-21T06:52:45;97621.09;;;14.39;75.66
6514;BME280;3290;47.716;9.070;2022-09-21T06:55:11;97620.72;;;14.53;75.36
6514;BME280;3290;47.716;9.070;2022-09-21T06:57:36;97625.31;;;14.76;74.45
6514;BME280;3290;47.716;9.070;2022-09-21T07:00:04;97624.53;;;14.40;74.73
6514;BME280;3290;47.716;9.070;2022-09-21T07:02:30;97618.56;;;14.80;73.52
6514;BME280;3290;47.716;9.070;2022-09-21T07:04:55;97621.38;;;15.25;71.50
6514;BME280;3290;47.716;9.070;2022-09-21T07:07:20;97621.91;;;14.86;70.61
6514;BME280;3290;47.716;9.070;2022-09-21T07:09:50;97618.09;;;15.63;68.77
6514;BME280;3290;47.716;9.070;2022-09-21T07:12:16;97621.09;;;15.67;67.32
6514;BME280;3290;47.716;9.070;2022-09-21T07:14:41;97624.44;;;15.85;67.34
6514;BME280;3290;47.716;9.070;2022-09-21T07:17:09;97629.72;;;16.08;67.33
6514;BME280;3290;47.716;9.070;2022-09-21T07:19:34;97628.00;;;15.91;66.29
6514;BME280;3290;47.716;9.070;2022-09-21T07:22:00;97623.28;;;16.04;66.40
6514;BME280;3290;47.716;9.070;2022-09-21T07:24:25;97630.28;;;15.76;68.22
6514;BME280;3290;47.716;9.070;2022-09-21T07:26:51;97623.63;;;16.07;66.36
6514;BME280;3290;47.716;9.070;2022-09-21T07:29:17;97629.84;;;16.02;65.62
6514;BME280;3290;47.716;9.070;2022-09-21T07:31:43;97623.84;;;16.79;62.52
6514;BME280;3290;47.716;9.070;2022-09-21T07:34:09;97625.47;;;16.80;63.41
6514;BME280;3290;47.716;9.070;2022-09-21T07:36:35;97621.09;;;16.74;64.49
6514;BME280;3290;47.716;9.070;2022-09-21T07:39:00;97625.44;;;17.19;61.11
6514;BME280;3290;47.716;9.070;2022-09-21T07:41:27;97619.28;;;16.63;61.85
6514;BME280;3290;47.716;9.070;2022-09-21T07:43:52;97625.38;;;16.64;63.71
6514;BME280;3290;47.716;9.070;2022-09-21T07:46:18;97628.84;;;16.92;61.77
6514;BME280;3290;47.716;9.070;2022-09-21T07:48:45;97619.13;;;17.53;59.55
6514;BME280;3290;47.716;9.070;2022-09-21T07:51:12;97629.16;;;17.67;60.45
6514;BME280;3290;47.716;9.070;2022-09-21T07:53:40;97623.84;;;17.67;59.00
6514;BME280;3290;47.716;9.070;2022-09-21T07:56:08;97623.94;;;17.12;58.85
6514;BME280;3290;47.716;9.070;2022-09-21T07:58:36;97624.84;;;17.45;59.11
6514;BME280;3290;47.716;9.070;2022-09-21T08:01:20;97629.41;;;17.82;58.05
6514;BME280;3290;47.716;9.070;2022-09-21T08:03:53;97625.81;;;17.55;58.31
6514;BME280;3290;47.716;9.070;2022-09-21T08:06:20;97626.75;;;17.65;57.43
6514;BME280;3290;47.716;9.070;2022-09-21T08:08:46;97619.97;;;18.07;57.08
6514;BME280;3290;47.716;9.070;2022-09-21T08:11:13;97628.38;;;17.50;57.38
6514;BME280;3290;47.716;9.070;2022-09-21T08:13:39;97629.41;;;17.82;56.15
6514;BME280;3290;47.716;9.070;2022-09-21T08:16:05;97620.78;;;18.24;56.40
6514;BME280;3290;47.716;9.070;2022-09-21T08:18:31;97619.06;;;18.77;54.87
6514;BME280;3290;47.716;9.070;2022-09-21T08:20:58;97612.38;;;18.53;55.52
6514;BME280;3290;47.716;9.070;2022-09-21T08:23:24;97617.97;;;18.73;55.13
6514;BME280;3290;47.716;9.070;2022-09-21T08:26:06;97615.97;;;18.04;54.17
6514;BME280;3290;47.716;9.070;2022-09-21T08:28:32;97617.44;;;17.63;54.95
6514;BME280;3290;47.716;9.070;2022-09-21T08:31:06;97617.34;;;17.58;54.92
6514;BME280;3290;47.716;9.070;2022-09-21T08:33:33;97609.88;;;18.63;53.19
6514;BME280;3290;47.716;9.070;2022-09-21T08:35:59;97606.41;;;18.41;52.86
6514;BME280;3290;47.716;9.070;2022-09-21T08:38:26;97612.28;;;18.22;52.39
6514;BME280;3290;47.716;9.070;2022-09-21T08:40:52;97612.91;;;18.50;51.96
6514;BME280;3290;47.716;9.070;2022-09-21T08:43:30;97616.06;;;19.16;51.02
6514;BME280;3290;47.716;9.070;2022-09-21T08:45:58;97609.44;;;18.49;51.13
6514;BME280;3290;47.716;9.070;2022-09-21T08:48:29;97608.63;;;19.18;49.84
6514;BME280;3290;47.716;9.070;2022-09-21T08:50:59;97608.00;;;18.84;51.70
6514;BME280;3290;47.716;9.070;2022-09-21T08:53:32;97610.72;;;20.04;50.46
6514;BME280;3290;47.716;9.070;2022-09-21T08:55:59;97607.53;;;20.02;49.62
6514;BME280;3290;47.716;9.070;2022-09-21T08:58:28;97603.44;;;20.31;48.19
6514;BME280;3290;47.716;9.070;2022-09-21T09:04:03;97598.72;;;19.66;48.04
6514;BME280;3290;47.716;9.070;2022-09-21T09:09:26;97595.63;;;19.78;47.19
6514;BME280;3290;47.716;9.070;2022-09-21T09:18:03;97581.72;;;19.35;46.57
6514;BME280;3290;47.716;9.070;2022-09-21T09:20:35;97586.13;;;20.28;45.81
6514;BME280;3290;47.716;9.070;2022-09-21T09:23:21;97585.72;;;20.05;45.52
6514;BME280;3290;47.716;9.070;2022-09-21T09:25:53;97583.91;;;20.66;44.13
6514;BME280;3290;47.716;9.070;2022-09-21T09:30:46;97578.00;;;20.59;43.42
6514;BME280;3290;47.716;9.070;2022-09-21T09:33:23;97576.19;;;20.65;44.31
6514;BME280;3290;47.716;9.070;2022-09-21T09:35:59;97578.59;;;20.66;44.51
6514;BME280;3290;47.716;9.070;2022-09-21T09:38:31;97573.44;;;21.65;42.48
6514;BME280;3290;47.716;9.070;2022-09-21T09:52:19;97558.16;;;20.91;43.12
6514;BME280;3290;47.716;9.070;2022-09-21T09:54:45;97549.91;;;20.93;41.71
6514;BME280;3290;47.716;9.070;2022-09-21T09:57:12;97546.47;;;21.71;41.42
6514;BME280;3290;47.716;9.070;2022-09-21T09:59:46;97532.09;;;21.77;40.36
6514;BME280;3290;47.716;9.070;2022-09-21T10:02:23;97534.94;;;22.20;42.09
6514;BME280;3290;47.716;9.070;2022-09-21T10:05:03;97536.59;;;21.08;41.00
6514;BME280;3290;47.716;9.070;2022-09-21T10:07:41;97541.66;;;21.88;41.74
6514;BME280;3290;47.716;9.070;2022-09-21T10:13:18;97531.81;;;21.74;41.19
6514;BME280;3290;47.716;9.070;2022-09-21T10:18:51;97526.94;;;22.06;42.19
6514;BME280;3290;47.716;9.070;2022-09-21T10:21:21;97522.56;;;22.39;40.87
6514;BME280;3290;47.716;9.070;2022-09-21T10:23:50;97519.91;;;22.44;41.68
6514;BME280;3290;47.716;9.070;2022-09-21T10:26:17;97515.69;;;22.28;41.40
6514;BME280;3290;47.716;9.070;2022-09-21T10:32:05;97515.06;;;22.99;40.09
6514;BME280;3290;47.716;9.070;2022-09-21T10:37:37;97503.00;;;21.71;41.25
6514;BME280;3290;47.716;9.070;2022-09-21T10:40:26;97511.75;;;22.69;40.27
6514;BME280;3290;47.716;9.070;2022-09-21T10:42:57;97502.31;;;22.81;38.73
6514;BME280;3290;47.716;9.070;2022-09-21T10:45:29;97497.97;;;23.00;39.30
6514;BME280;3290;47.716;9.070;2022-09-21T10:53:01;97502.31;;;23.24;38.15
6514;BME280;3290;47.716;9.070;2022-09-21T10:55:43;97500.41;;;22.92;39.09
6514;BME280;3290;47.716;9.070;2022-09-21T10:58:12;97484.00;;;22.65;39.14
6514;BME280;3290;47.716;9.070;2022-09-21T11:00:50;97496.06;;;23.00;39.51
6514;BME280;3290;47.716;9.070;2022-09-21T11:03:36;97490.06;;;22.75;37.78
6514;BME280;3290;47.716;9.070;2022-09-21T11:06:27;97478.41;;;21.89;38.19
6514;BME280;3290;47.716;9.070;2022-09-21T11:09:02;97486.91;;;22.68;39.35
6514;BME280;3290;47.716;9.070;2022-09-21T11:16:59;97481.97;;;22.90;38.43
6514;BME280;3290;47.716;9.070;2022-09-21T11:22:23;97479.75;;;23.02;38.14
6514;BME280;3290;47.716;9.070;2022-09-21T11:25:07;97462.47;;;23.51;36.69
6514;BME280;3290;47.716;9.070;2022-09-21T11:27:41;97465.47;;;22.30;38.05
6514;BME280;3290;47.716;9.070;2022-09-21T11:30:13;97463.91;;;22.19;36.81
6514;BME280;3290;47.716;9.070;2022-09-21T11:41:37;97451.09;;;22.21;37.35
6514;BME280;3290;47.716;9.070;2022-09-21T11:44:33;97454.63;;;22.60;37.98
6514;BME280;3290;47.716;9.070;2022-09-21T11:52:25;97449.09;;;22.90;37.44
6514;BME280;3290;47.716;9.070;2022-09-21T11:57:46;97448.84;;;23.24;35.96
6514;BME280;3290;47.716;9.070;2022-09-21T12:00:19;97444.13;;;22.73;36.87
6514;BME280;3290;47.716;9.070;2022-09-21T12:13:53;97432.63;;;22.73;38.54
6514;BME280;3290;47.716;9.070;2022-09-21T12:21:39;97431.53;;;21.63;40.33
6514;BME280;3290;47.716;9.070;2022-09-21T12:24:18;97435.84;;;20.70;40.39
6514;BME280;3290;47.716;9.070;2022-09-21T12:26:52;97434.06;;;22.03;38.88
6514;BME280;3290;47.716;9.070;2022-09-21T12:32:03;97423.91;;;22.05;37.93
6514;BME280;3290;47.716;9.070;2022-09-21T12:34:40;97416.97;;;22.04;39.13
6514;BME280;3290;47.716;9.070;2022-09-21T12:37:11;97424.38;;;21.29;39.07
6514;BME280;3290;47.716;9.070;2022-09-21T12:40:15;97421.41;;;20.51;39.70
6514;BME280;3290;47.716;9.070;2022-09-21T12:45:43;97425.00;;;20.06;42.02
6514;BME280;3290;47.716;9.070;2022-09-21T12:48:27;97413.19;;;21.42;41.42
6514;BME280;3290;47.716;9.070;2022-09-21T12:53:46;97413.81;;;22.92;39.44
6514;BME280;3290;47.716;9.070;2022-09-21T12:59:03;97414.16;;;23.14;38.68
6514;BME280;3290;47.716;9.070;2022-09-21T13:01:40;97413.50;;;22.94;37.51
6514;BME280;3290;47.716;9.070;2022-09-21T13:09:43;97402.78;;;22.08;37.78
6514;BME280;3290;47.716;9.070;2022-09-21T13:12:22;97411.22;;;21.72;38.61
6514;BME280;3290;47.716;9.070;2022-09-21T13:15:02;97398.78;;;22.10;37.81
6514;BME280;3290;47.716;9.070;2022-09-21T13:17:30;97401.97;;;22.12;38.22
6514;BME280;3290;47.716;9.070;2022-09-21T13:22:26;97396.34;;;21.56;38.51
6514;BME280;3290;47.716;9.070;2022-09-21T13:25:04;97402.41;;;21.76;38.53
6514;BME280;3290;47.716;9.070;2022-09-21T13:32:57;97386.22;;;22.11;38.49
6514;BME280;3290;47.716;9.070;2022-09-21T13:51:58;97376.22;;;21.88;38.32
6514;BME280;3290;47.716;9.070;2022-09-21T13:54:35;97379.56;;;21.41;38.65
6514;BME280;3290;47.716;9.070;2022-09-21T13:59:45;97379.94;;;21.87;38.75
6514;BME280;3290;47.716;9.070;2022-09-21T14:02:30;97383.41;;;21.88;38.16
6514;BME280;3290;47.716;9.070;2022-09-21T14:05:06;97375.53;;;21.58;40.03
6514;BME280;3290;47.716;9.070;2022-09-21T14:07:33;97376.66;;;22.05;38.76
6514;BME280;3290;47.716;9.070;2022-09-21T14:10:03;97372.59;;;21.55;39.09
6514;BME280;3290;47.716;9.070;2022-09-21T14:12:38;97376.06;;;21.55;38.96
6514;BME280;3290;47.716;9.070;2022-09-21T14:18:34;97375.84;;;21.42;38.84
6514;BME280;3290;47.716;9.070;2022-09-21T14:23:32;97372.88;;;21.48;40.42
6514;BME280;3290;47.716;9.070;2022-09-21T14:25:59;97366.16;;;21.66;39.22
6514;BME280;3290;47.716;9.070;2022-09-21T14:28:41;97374.50;;;21.44;39.39
6514;BME280;3290;47.716;9.070;2022-09-21T14:31:25;97376.03;;;21.65;38.45
6514;BME280;3290;47.716;9.070;2022-09-21T14:33:54;97363.31;;;21.47;38.37
6514;BME280;3290;47.716;9.070;2022-09-21T14:36:44;97370.25;;;21.14;39.41
6514;BME280;3290;47.716;9.070;2022-09-21T14:39:34;97377.75;;;20.48;39.59
6514;BME280;3290;47.716;9.070;2022-09-21T14:42:07;97376.41;;;21.09;39.91
6514;BME280;3290;47.716;9.070;2022-09-21T14:44:37;97371.31;;;21.42;38.96
6514;BME280;3290;47.716;9.070;2022-09-21T14:55:42;97373.88;;;21.77;39.36
6514;BME280;3290;47.716;9.070;2022-09-21T15:17:59;97379.28;;;20.19;39.45
6514;BME280;3290;47.716;9.070;2022-09-21T15:20:29;97371.81;;;20.11;39.29
6514;BME280;3290;47.716;9.070;2022-09-21T15:22:56;97374.81;;;20.59;40.24
6514;BME280;3290;47.716;9.070;2022-09-21T15:25:28;97369.75;;;20.48;39.40
6514;BME280;3290;47.716;9.070;2022-09-21T15:27:56;97373.75;;;20.65;38.56
6514;BME280;3290;47.716;9.070;2022-09-21T15:30:27;97368.72;;;20.78;38.12
6514;BME280;3290;47.716;9.070;2022-09-21T15:32:56;97372.94;;;20.45;39.01
6514;BME280;3290;47.716;9.070;2022-09-21T15:35:27;97373.72;;;20.45;38.46
6514;BME280;3290;47.716;9.070;2022-09-21T15:37:54;97372.31;;;19.93;39.21
6514;BME280;3290;47.716;9.070;2022-09-21T15:40:24;97369.44;;;20.24;40.37
6514;BME280;3290;47.716;9.070;2022-09-21T15:43:25;97366.50;;;20.11;40.54
6514;BME280;3290;47.716;9.070;2022-09-21T15:45:54;97372.16;;;20.44;39.58
6514;BME280;3290;47.716;9.070;2022-09-21T15:48:21;97362.56;;;20.48;40.91
6514;BME280;3290;47.716;9.070;2022-09-21T15:51:00;97379.31;;;20.48;41.29
6514;BME280;3290;47.716;9.070;2022-09-21T15:53:30;97377.97;;;20.31;40.45
6514;BME280;3290;47.716;9.070;2022-09-21T15:55:58;97379.28;;;20.19;39.66
6514;BME280;3290;47.716;9.070;2022-09-21T15:58:34;97377.88;;;19.92;40.28
6514;BME280;3290;47.716;9.070;2022-09-21T16:01:07;97383.19;;;19.92;41.42
6514;BME280;3290;47.716;9.070;2022-09-21T16:03:33;97379.84;;;20.31;40.29
6514;BME280;3290;47.716;9.070;2022-09-21T16:06:17;97379.78;;;20.06;40.60
6514;BME280;3290;47.716;9.070;2022-09-21T16:08:47;97387.41;;;19.88;40.57
6514;BME280;3290;47.716;9.070;2022-09-21T16:13:41;97387.19;;;19.43;40.68
6514;BME280;3290;47.716;9.070;2022-09-21T16:16:25;97390.22;;;19.62;40.12
6514;BME280;3290;47.716;9.070;2022-09-21T16:18:53;97388.81;;;19.49;40.80
6514;BME280;3290;47.716;9.070;2022-09-21T16:21:34;97393.81;;;19.36;41.81
6514;BME280;3290;47.716;9.070;2022-09-21T16:24:19;97399.63;;;19.33;42.26
6514;BME280;3290;47.716;9.070;2022-09-21T16:26:57;97403.66;;;18.68;42.77
6514;BME280;3290;47.716;9.070;2022-09-21T16:29:27;97402.81;;;18.63;43.44
6514;BME280;3290;47.716;9.070;2022-09-21T16:32:20;97403.13;;;18.40;43.04
6514;BME280;3290;47.716;9.070;2022-09-21T16:34:52;97402.47;;;18.28;43.71
6514;BME280;3290;47.716;9.070;2022-09-21T16:39:47;97414.84;;;18.44;42.23
6514;BME280;3290;47.716;9.070;2022-09-21T16:42:12;97407.31;;;17.89;43.71
6514;BME280;3290;47.716;9.070;2022-09-21T16:44:38;97418.56;;;18.17;42.99
6514;BME280;3290;47.716;9.070;2022-09-21T16:47:19;97421.19;;;17.96;44.06
6514;BME280;3290;47.716;9.070;2022-09-21T16:49:57;97424.03;;;17.89;44.85
6514;BME280;3290;47.716;9.070;2022-09-21T16:52:28;97423.41;;;17.61;45.11
6514;BME280;3290;47.716;9.070;2022-09-21T16:54:54;97425.69;;;17.74;44.64
6514;BME280;3290;47.716;9.070;2022-09-21T16:57:21;97423.16;;;17.63;45.62